Waterbury, Connecticut
Current Conditions -  °F | °C
As of 3:48 PM on Friday 24 Oct 2014 (Local Time) from KOXC Reporting Station
Overcast Overcast  
Wind Chill: 50°   Ceiling: 2300
Heat Index: 50°   Visibility: 10mi
Dew Point: 39°   Wind: 12mph
Humidity: 66%   Direction: 340°NNW
Pressure: 29.78"   Gusts: 18mph
Location:  41.55°N, 73.05°W
Report Text: KOXC 241948Z 34010G16KT 10SM OVC023 10/04 A2978
Loading
Personal Weather Stations






























Interactive Weather Map New forecast layout! Learn more

10-Day Weather Forecast

Advertisements
Track Severe Weather on mobile